sensor_id;sensor_type;location;lat;lon;timestamp;temperature;humidity
25208;DHT22;13153;52.316;21.166;2024-02-16T00:01:31;7.80;99.90
25208;DHT22;13153;52.316;21.166;2024-02-16T00:03:57;7.80;99.90
25208;DHT22;13153;52.316;21.166;2024-02-16T00:06:23;7.90;99.90
25208;DHT22;13153;52.316;21.166;2024-02-16T00:08:48;7.80;99.90
25208;DHT22;13153;52.316;21.166;2024-02-16T00:11:14;7.80;99.90
25208;DHT22;13153;52.316;21.166;2024-02-16T00:13:40;7.80;99.90
25208;DHT22;13153;52.316;21.166;2024-02-16T00:16:06;7.80;99.90
25208;DHT22;13153;52.316;21.166;2024-02-16T00:18:33;7.80;99.90
25208;DHT22;13153;52.316;21.166;2024-02-16T00:20:58;7.80;99.90
25208;DHT22;13153;52.316;21.166;2024-02-16T00:23:24;7.80;99.90
25208;DHT22;13153;52.316;21.166;2024-02-16T00:25:51;7.80;99.90
25208;DHT22;13153;52.316;21.166;2024-02-16T00:28:16;7.80;99.90
25208;DHT22;13153;52.316;21.166;2024-02-16T00:30:42;7.80;99.90
25208;DHT22;13153;52.316;21.166;2024-02-16T00:33:08;7.80;99.90
25208;DHT22;13153;52.316;21.166;2024-02-16T00:35:34;7.80;99.90
25208;DHT22;13153;52.316;21.166;2024-02-16T00:38:00;7.80;99.90
25208;DHT22;13153;52.316;21.166;2024-02-16T00:40:26;7.80;99.90
25208;DHT22;13153;52.316;21.166;2024-02-16T00:42:52;7.80;99.90
25208;DHT22;13153;52.316;21.166;2024-02-16T00:45:18;7.80;99.90
25208;DHT22;13153;52.316;21.166;2024-02-16T00:47:44;7.80;99.90
25208;DHT22;13153;52.316;21.166;2024-02-16T00:50:11;7.80;99.90
25208;DHT22;13153;52.316;21.166;2024-02-16T00:52:37;7.70;99.90
25208;DHT22;13153;52.316;21.166;2024-02-16T00:55:05;7.70;99.90
25208;DHT22;13153;52.316;21.166;2024-02-16T00:57:31;7.70;99.90
25208;DHT22;13153;52.316;21.166;2024-02-16T00:59:58;7.70;99.90
25208;DHT22;13153;52.316;21.166;2024-02-16T01:02:24;7.70;99.90
25208;DHT22;13153;52.316;21.166;2024-02-16T01:04:50;7.70;99.90
25208;DHT22;13153;52.316;21.166;2024-02-16T01:07:17;7.60;99.90
25208;DHT22;13153;52.316;21.166;2024-02-16T01:09:43;7.60;99.90
25208;DHT22;13153;52.316;21.166;2024-02-16T01:12:08;7.60;99.90
25208;DHT22;13153;52.316;21.166;2024-02-16T01:14:34;7.60;99.90
25208;DHT22;13153;52.316;21.166;2024-02-16T01:17:00;7.60;99.90
25208;DHT22;13153;52.316;21.166;2024-02-16T01:19:26;7.60;99.90
25208;DHT22;13153;52.316;21.166;2024-02-16T01:21:51;7.50;99.90
25208;DHT22;13153;52.316;21.166;2024-02-16T01:24:23;7.50;99.90
25208;DHT22;13153;52.316;21.166;2024-02-16T01:26:49;7.50;99.90
25208;DHT22;13153;52.316;21.166;2024-02-16T01:29:14;7.50;99.90
25208;DHT22;13153;52.316;21.166;2024-02-16T01:31:40;7.40;99.90
25208;DHT22;13153;52.316;21.166;2024-02-16T01:34:06;7.40;99.90
25208;DHT22;13153;52.316;21.166;2024-02-16T01:36:32;7.40;99.90
25208;DHT22;13153;52.316;21.166;2024-02-16T01:38:58;7.40;99.90
25208;DHT22;13153;52.316;21.166;2024-02-16T01:41:24;7.30;99.90
25208;DHT22;13153;52.316;21.166;2024-02-16T01:43:55;7.30;99.90
25208;DHT22;13153;52.316;21.166;2024-02-16T01:46:21;7.30;99.90
25208;DHT22;13153;52.316;21.166;2024-02-16T01:48:48;7.30;99.90
25208;DHT22;13153;52.316;21.166;2024-02-16T01:51:15;7.30;99.90
25208;DHT22;13153;52.316;21.166;2024-02-16T01:53:41;7.30;99.90
25208;DHT22;13153;52.316;21.166;2024-02-16T01:56:07;7.30;99.90
25208;DHT22;13153;52.316;21.166;2024-02-16T01:58:34;7.30;99.90
25208;DHT22;13153;52.316;21.166;2024-02-16T02:01:00;7.30;99.90
25208;DHT22;13153;52.316;21.166;2024-02-16T02:03:25;7.30;99.90
25208;DHT22;13153;52.316;21.166;2024-02-16T02:05:51;7.30;99.90
25208;DHT22;13153;52.316;21.166;2024-02-16T02:08:20;7.30;99.90
25208;DHT22;13153;52.316;21.166;2024-02-16T02:10:45;7.40;99.90
25208;DHT22;13153;52.316;21.166;2024-02-16T02:13:11;7.30;99.90
25208;DHT22;13153;52.316;21.166;2024-02-16T02:15:37;7.30;99.90
25208;DHT22;13153;52.316;21.166;2024-02-16T02:18:03;7.30;99.90
25208;DHT22;13153;52.316;21.166;2024-02-16T02:20:28;7.40;99.90
25208;DHT22;13153;52.316;21.166;2024-02-16T02:22:54;7.40;99.90
25208;DHT22;13153;52.316;21.166;2024-02-16T02:25:20;7.40;52.80
25208;DHT22;13153;52.316;21.166;2024-02-16T02:27:47;7.40;1.00
25208;DHT22;13153;52.316;21.166;2024-02-16T02:30:12;7.40;1.00
25208;DHT22;13153;52.316;21.166;2024-02-16T02:32:38;7.40;1.00
25208;DHT22;13153;52.316;21.166;2024-02-16T02:35:05;7.30;1.00
25208;DHT22;13153;52.316;21.166;2024-02-16T02:37:31;7.30;1.00
25208;DHT22;13153;52.316;21.166;2024-02-16T02:39:57;7.30;1.00
25208;DHT22;13153;52.316;21.166;2024-02-16T02:42:23;7.30;1.00
25208;DHT22;13153;52.316;21.166;2024-02-16T02:44:48;7.30;1.00
25208;DHT22;13153;52.316;21.166;2024-02-16T02:47:17;7.30;1.00
25208;DHT22;13153;52.316;21.166;2024-02-16T02:49:43;7.30;1.00
25208;DHT22;13153;52.316;21.166;2024-02-16T02:52:10;7.30;1.00
25208;DHT22;13153;52.316;21.166;2024-02-16T02:54:35;7.20;1.00
25208;DHT22;13153;52.316;21.166;2024-02-16T02:57:02;7.20;1.00
25208;DHT22;13153;52.316;21.166;2024-02-16T02:59:28;7.20;1.00
25208;DHT22;13153;52.316;21.166;2024-02-16T03:01:54;7.10;1.00
25208;DHT22;13153;52.316;21.166;2024-02-16T03:04:20;7.10;1.00
25208;DHT22;13153;52.316;21.166;2024-02-16T03:06:46;7.10;1.00
25208;DHT22;13153;52.316;21.166;2024-02-16T03:09:12;7.10;1.00
25208;DHT22;13153;52.316;21.166;2024-02-16T03:11:38;7.00;1.00
25208;DHT22;13153;52.316;21.166;2024-02-16T03:14:04;7.00;1.00
25208;DHT22;13153;52.316;21.166;2024-02-16T03:16:31;7.00;1.00
25208;DHT22;13153;52.316;21.166;2024-02-16T03:18:58;7.00;1.00
25208;DHT22;13153;52.316;21.166;2024-02-16T03:21:23;7.00;1.00
25208;DHT22;13153;52.316;21.166;2024-02-16T03:23:49;7.00;1.00
25208;DHT22;13153;52.316;21.166;2024-02-16T03:26:16;6.90;1.00
25208;DHT22;13153;52.316;21.166;2024-02-16T03:28:44;6.90;1.00
25208;DHT22;13153;52.316;21.166;2024-02-16T03:31:20;7.00;1.00
25208;DHT22;13153;52.316;21.166;2024-02-16T03:33:48;6.90;1.00
25208;DHT22;13153;52.316;21.166;2024-02-16T03:36:15;6.80;1.00
25208;DHT22;13153;52.316;21.166;2024-02-16T03:38:45;6.80;1.00
25208;DHT22;13153;52.316;21.166;2024-02-16T03:41:13;6.80;14.40
25208;DHT22;13153;52.316;21.166;2024-02-16T03:43:41;6.80;1.00
25208;DHT22;13153;52.316;21.166;2024-02-16T03:46:07;6.80;1.00
25208;DHT22;13153;52.316;21.166;2024-02-16T03:48:34;6.80;1.00
25208;DHT22;13153;52.316;21.166;2024-02-16T03:51:00;6.70;1.00
25208;DHT22;13153;52.316;21.166;2024-02-16T03:53:26;6.70;5.20
25208;DHT22;13153;52.316;21.166;2024-02-16T03:55:52;6.70;4.60
25208;DHT22;13153;52.316;21.166;2024-02-16T03:58:17;6.70;1.00
25208;DHT22;13153;52.316;21.166;2024-02-16T04:00:43;6.60;1.00
25208;DHT22;13153;52.316;21.166;2024-02-16T04:03:09;6.50;36.70
25208;DHT22;13153;52.316;21.166;2024-02-16T04:05:38;6.60;37.40
25208;DHT22;13153;52.316;21.166;2024-02-16T04:08:04;6.50;39.70
25208;DHT22;13153;52.316;21.166;2024-02-16T04:10:32;6.50;8.20
25208;DHT22;13153;52.316;21.166;2024-02-16T04:12:58;6.50;4.40
25208;DHT22;13153;52.316;21.166;2024-02-16T04:15:24;6.50;1.00
25208;DHT22;13153;52.316;21.166;2024-02-16T04:17:50;6.50;1.00
25208;DHT22;13153;52.316;21.166;2024-02-16T04:20:15;6.40;1.00
25208;DHT22;13153;52.316;21.166;2024-02-16T04:22:42;6.40;44.60
25208;DHT22;13153;52.316;21.166;2024-02-16T04:25:08;6.40;92.40
25208;DHT22;13153;52.316;21.166;2024-02-16T04:27:35;6.30;51.50
25208;DHT22;13153;52.316;21.166;2024-02-16T04:30:02;6.30;16.80
25208;DHT22;13153;52.316;21.166;2024-02-16T04:32:29;6.30;1.00
25208;DHT22;13153;52.316;21.166;2024-02-16T04:34:54;6.30;26.60
25208;DHT22;13153;52.316;21.166;2024-02-16T04:37:22;6.20;37.10
25208;DHT22;13153;52.316;21.166;2024-02-16T04:39:49;6.20;25.40
25208;DHT22;13153;52.316;21.166;2024-02-16T04:42:16;6.20;40.80
25208;DHT22;13153;52.316;21.166;2024-02-16T04:44:41;6.20;42.50
25208;DHT22;13153;52.316;21.166;2024-02-16T04:47:08;6.20;67.30
25208;DHT22;13153;52.316;21.166;2024-02-16T04:49:35;6.20;1.00
25208;DHT22;13153;52.316;21.166;2024-02-16T04:52:01;6.10;9.20
25208;DHT22;13153;52.316;21.166;2024-02-16T04:54:27;6.10;40.70
25208;DHT22;13153;52.316;21.166;2024-02-16T04:56:53;6.10;23.00
25208;DHT22;13153;52.316;21.166;2024-02-16T04:59:19;6.10;89.70
25208;DHT22;13153;52.316;21.166;2024-02-16T05:01:45;6.10;39.10
25208;DHT22;13153;52.316;21.166;2024-02-16T05:04:11;6.00;1.00
25208;DHT22;13153;52.316;21.166;2024-02-16T05:06:45;6.00;1.00
25208;DHT22;13153;52.316;21.166;2024-02-16T05:09:12;6.10;1.00
25208;DHT22;13153;52.316;21.166;2024-02-16T05:11:45;6.10;1.00
25208;DHT22;13153;52.316;21.166;2024-02-16T05:14:11;6.10;1.00
25208;DHT22;13153;52.316;21.166;2024-02-16T05:16:42;6.10;1.00
25208;DHT22;13153;52.316;21.166;2024-02-16T05:19:09;6.10;1.00
25208;DHT22;13153;52.316;21.166;2024-02-16T05:21:34;6.10;1.00
25208;DHT22;13153;52.316;21.166;2024-02-16T05:24:00;6.00;1.00
25208;DHT22;13153;52.316;21.166;2024-02-16T05:26:26;6.10;1.00
25208;DHT22;13153;52.316;21.166;2024-02-16T05:28:52;6.00;1.00
25208;DHT22;13153;52.316;21.166;2024-02-16T05:31:18;6.00;1.00
25208;DHT22;13153;52.316;21.166;2024-02-16T05:33:46;6.00;1.00
25208;DHT22;13153;52.316;21.166;2024-02-16T05:36:19;6.00;1.00
25208;DHT22;13153;52.316;21.166;2024-02-16T05:38:50;5.90;1.00
25208;DHT22;13153;52.316;21.166;2024-02-16T05:41:17;5.90;1.00
25208;DHT22;13153;52.316;21.166;2024-02-16T05:43:46;5.90;1.00
25208;DHT22;13153;52.316;21.166;2024-02-16T05:46:15;6.00;1.00
25208;DHT22;13153;52.316;21.166;2024-02-16T05:48:42;6.00;1.00
25208;DHT22;13153;52.316;21.166;2024-02-16T05:51:09;6.00;1.00
25208;DHT22;13153;52.316;21.166;2024-02-16T05:53:38;5.90;1.00
25208;DHT22;13153;52.316;21.166;2024-02-16T05:56:04;5.90;1.00
25208;DHT22;13153;52.316;21.166;2024-02-16T05:58:31;5.90;1.00
25208;DHT22;13153;52.316;21.166;2024-02-16T06:00:56;5.90;1.00
25208;DHT22;13153;52.316;21.166;2024-02-16T06:03:23;6.00;1.00
25208;DHT22;13153;52.316;21.166;2024-02-16T06:05:48;6.00;1.00
25208;DHT22;13153;52.316;21.166;2024-02-16T06:08:14;6.00;1.00
25208;DHT22;13153;52.316;21.166;2024-02-16T06:10:44;6.20;99.90
25208;DHT22;13153;52.316;21.166;2024-02-16T06:13:17;6.40;99.90
25208;DHT22;13153;52.316;21.166;2024-02-16T06:15:43;6.70;99.90
25208;DHT22;13153;52.316;21.166;2024-02-16T06:18:09;6.90;99.90
25208;DHT22;13153;52.316;21.166;2024-02-16T06:20:35;7.10;99.90
25208;DHT22;13153;52.316;21.166;2024-02-16T06:23:01;7.20;1.00
25208;DHT22;13153;52.316;21.166;2024-02-16T06:25:27;7.30;99.90
25208;DHT22;13153;52.316;21.166;2024-02-16T06:27:53;7.30;99.90
25208;DHT22;13153;52.316;21.166;2024-02-16T06:30:18;7.20;1.00
25208;DHT22;13153;52.316;21.166;2024-02-16T06:32:44;7.30;1.00
25208;DHT22;13153;52.316;21.166;2024-02-16T06:35:10;7.20;99.90
25208;DHT22;13153;52.316;21.166;2024-02-16T06:37:36;7.20;1.00
25208;DHT22;13153;52.316;21.166;2024-02-16T06:40:06;7.20;99.90
25208;DHT22;13153;52.316;21.166;2024-02-16T06:42:35;7.30;99.90
25208;DHT22;13153;52.316;21.166;2024-02-16T06:45:02;7.30;1.00
25208;DHT22;13153;52.316;21.166;2024-02-16T06:47:31;7.40;99.90
25208;DHT22;13153;52.316;21.166;2024-02-16T06:49:57;7.50;1.00
25208;DHT22;13153;52.316;21.166;2024-02-16T06:52:23;7.50;99.90
25208;DHT22;13153;52.316;21.166;2024-02-16T06:54:48;7.60;99.90
25208;DHT22;13153;52.316;21.166;2024-02-16T06:57:17;7.60;1.00
25208;DHT22;13153;52.316;21.166;2024-02-16T06:59:43;7.60;1.00
25208;DHT22;13153;52.316;21.166;2024-02-16T07:02:08;7.70;1.00
25208;DHT22;13153;52.316;21.166;2024-02-16T07:04:36;7.70;1.00
25208;DHT22;13153;52.316;21.166;2024-02-16T07:07:02;7.80;1.00
25208;DHT22;13153;52.316;21.166;2024-02-16T07:09:29;7.90;99.90
25208;DHT22;13153;52.316;21.166;2024-02-16T07:11:55;7.90;1.00
25208;DHT22;13153;52.316;21.166;2024-02-16T07:14:20;7.90;99.90
25208;DHT22;13153;52.316;21.166;2024-02-16T07:16:46;8.00;99.90
25208;DHT22;13153;52.316;21.166;2024-02-16T07:19:12;8.10;99.90
25208;DHT22;13153;52.316;21.166;2024-02-16T07:21:38;8.20;1.00
25208;DHT22;13153;52.316;21.166;2024-02-16T07:24:04;8.20;1.00
25208;DHT22;13153;52.316;21.166;2024-02-16T07:26:30;8.20;1.00
25208;DHT22;13153;52.316;21.166;2024-02-16T07:28:55;8.30;1.00
25208;DHT22;13153;52.316;21.166;2024-02-16T07:31:21;8.40;1.00
25208;DHT22;13153;52.316;21.166;2024-02-16T07:33:47;8.40;99.90
25208;DHT22;13153;52.316;21.166;2024-02-16T07:36:13;8.40;99.90
25208;DHT22;13153;52.316;21.166;2024-02-16T07:38:39;8.40;99.90
25208;DHT22;13153;52.316;21.166;2024-02-16T07:41:05;8.50;99.90
25208;DHT22;13153;52.316;21.166;2024-02-16T07:43:32;8.50;99.90
25208;DHT22;13153;52.316;21.166;2024-02-16T07:45:58;8.50;99.90
25208;DHT22;13153;52.316;21.166;2024-02-16T07:48:24;8.50;99.90
25208;DHT22;13153;52.316;21.166;2024-02-16T07:50:50;8.50;99.90
25208;DHT22;13153;52.316;21.166;2024-02-16T07:53:15;8.70;99.90
25208;DHT22;13153;52.316;21.166;2024-02-16T07:55:41;8.70;99.90
25208;DHT22;13153;52.316;21.166;2024-02-16T07:58:07;8.80;63.80
25208;DHT22;13153;52.316;21.166;2024-02-16T08:00:34;8.90;1.00
25208;DHT22;13153;52.316;21.166;2024-02-16T08:03:00;9.00;1.00
25208;DHT22;13153;52.316;21.166;2024-02-16T08:05:26;9.00;1.00
25208;DHT22;13153;52.316;21.166;2024-02-16T08:07:52;9.10;1.00
25208;DHT22;13153;52.316;21.166;2024-02-16T08:10:22;9.10;1.00
25208;DHT22;13153;52.316;21.166;2024-02-16T08:12:48;9.10;1.00
25208;DHT22;13153;52.316;21.166;2024-02-16T08:15:14;9.30;1.00
25208;DHT22;13153;52.316;21.166;2024-02-16T08:17:40;9.40;1.00
25208;DHT22;13153;52.316;21.166;2024-02-16T08:20:06;9.60;1.00
25208;DHT22;13153;52.316;21.166;2024-02-16T08:22:33;9.60;1.00
25208;DHT22;13153;52.316;21.166;2024-02-16T08:24:59;9.70;1.00
25208;DHT22;13153;52.316;21.166;2024-02-16T08:27:26;9.90;99.90
25208;DHT22;13153;52.316;21.166;2024-02-16T08:29:52;9.90;99.90
25208;DHT22;13153;52.316;21.166;2024-02-16T08:32:17;10.00;99.90
25208;DHT22;13153;52.316;21.166;2024-02-16T08:34:45;10.00;99.90
25208;DHT22;13153;52.316;21.166;2024-02-16T08:37:13;10.10;99.90
25208;DHT22;13153;52.316;21.166;2024-02-16T08:39:39;10.20;99.90
25208;DHT22;13153;52.316;21.166;2024-02-16T08:42:06;10.20;99.90
25208;DHT22;13153;52.316;21.166;2024-02-16T08:44:34;10.20;99.90
25208;DHT22;13153;52.316;21.166;2024-02-16T08:47:00;10.20;99.90
25208;DHT22;13153;52.316;21.166;2024-02-16T08:49:26;10.30;99.90
25208;DHT22;13153;52.316;21.166;2024-02-16T08:51:52;10.40;99.90
25208;DHT22;13153;52.316;21.166;2024-02-16T08:54:18;10.50;99.90
25208;DHT22;13153;52.316;21.166;2024-02-16T08:56:45;10.70;98.80
25208;DHT22;13153;52.316;21.166;2024-02-16T08:59:11;10.80;66.50
25208;DHT22;13153;52.316;21.166;2024-02-16T09:01:37;10.90;1.00
25208;DHT22;13153;52.316;21.166;2024-02-16T09:04:06;11.00;4.50
25208;DHT22;13153;52.316;21.166;2024-02-16T09:06:32;11.20;1.00
25208;DHT22;13153;52.316;21.166;2024-02-16T09:09:00;11.20;1.00
25208;DHT22;13153;52.316;21.166;2024-02-16T09:11:26;11.30;1.00
25208;DHT22;13153;52.316;21.166;2024-02-16T09:13:53;11.20;1.00
25208;DHT22;13153;52.316;21.166;2024-02-16T09:16:18;11.10;1.00
25208;DHT22;13153;52.316;21.166;2024-02-16T09:18:44;11.10;1.00
25208;DHT22;13153;52.316;21.166;2024-02-16T09:21:10;11.00;1.00
25208;DHT22;13153;52.316;21.166;2024-02-16T09:23:37;11.10;1.00
25208;DHT22;13153;52.316;21.166;2024-02-16T09:26:03;11.10;1.00
25208;DHT22;13153;52.316;21.166;2024-02-16T09:28:29;11.10;1.00
25208;DHT22;13153;52.316;21.166;2024-02-16T09:30:56;11.30;1.00
25208;DHT22;13153;52.316;21.166;2024-02-16T09:33:23;11.50;1.00
25208;DHT22;13153;52.316;21.166;2024-02-16T09:35:50;11.60;1.00
25208;DHT22;13153;52.316;21.166;2024-02-16T09:38:16;11.50;1.00
25208;DHT22;13153;52.316;21.166;2024-02-16T09:40:43;11.50;1.00
25208;DHT22;13153;52.316;21.166;2024-02-16T09:43:09;11.60;1.00
25208;DHT22;13153;52.316;21.166;2024-02-16T09:45:36;11.60;1.00
25208;DHT22;13153;52.316;21.166;2024-02-16T09:48:02;11.50;1.00
25208;DHT22;13153;52.316;21.166;2024-02-16T09:50:35;11.50;1.00
25208;DHT22;13153;52.316;21.166;2024-02-16T09:53:04;11.40;1.00
25208;DHT22;13153;52.316;21.166;2024-02-16T09:55:32;11.50;1.00
25208;DHT22;13153;52.316;21.166;2024-02-16T09:58:00;11.50;1.00
25208;DHT22;13153;52.316;21.166;2024-02-16T10:00:27;11.50;1.00
25208;DHT22;13153;52.316;21.166;2024-02-16T10:02:53;11.50;1.00
25208;DHT22;13153;52.316;21.166;2024-02-16T10:05:20;11.70;1.00
25208;DHT22;13153;52.316;21.166;2024-02-16T10:07:46;11.70;1.00
25208;DHT22;13153;52.316;21.166;2024-02-16T10:10:26;11.80;1.00
25208;DHT22;13153;52.316;21.166;2024-02-16T10:13:05;11.90;1.00
25208;DHT22;13153;52.316;21.166;2024-02-16T10:15:32;11.90;1.00
25208;DHT22;13153;52.316;21.166;2024-02-16T10:18:02;12.00;1.00
25208;DHT22;13153;52.316;21.166;2024-02-16T10:20:35;12.10;1.00
25208;DHT22;13153;52.316;21.166;2024-02-16T10:23:08;12.00;1.00
25208;DHT22;13153;52.316;21.166;2024-02-16T10:25:39;12.10;1.00
25208;DHT22;13153;52.316;21.166;2024-02-16T10:28:10;12.00;1.00
25208;DHT22;13153;52.316;21.166;2024-02-16T10:30:41;12.10;1.00
25208;DHT22;13153;52.316;21.166;2024-02-16T10:33:11;12.20;1.00
25208;DHT22;13153;52.316;21.166;2024-02-16T10:35:41;12.10;1.00
25208;DHT22;13153;52.316;21.166;2024-02-16T10:38:10;12.10;1.00
25208;DHT22;13153;52.316;21.166;2024-02-16T10:40:40;12.00;1.00
25208;DHT22;13153;52.316;21.166;2024-02-16T10:43:08;12.10;1.00
25208;DHT22;13153;52.316;21.166;2024-02-16T10:45:37;12.20;1.00
25208;DHT22;13153;52.316;21.166;2024-02-16T10:48:05;12.20;1.00
25208;DHT22;13153;52.316;21.166;2024-02-16T10:50:34;12.20;1.00
25208;DHT22;13153;52.316;21.166;2024-02-16T10:53:13;12.10;1.00
25208;DHT22;13153;52.316;21.166;2024-02-16T10:55:40;12.20;1.00
25208;DHT22;13153;52.316;21.166;2024-02-16T10:58:11;12.20;1.00
25208;DHT22;13153;52.316;21.166;2024-02-16T11:00:48;12.20;1.00
25208;DHT22;13153;52.316;21.166;2024-02-16T11:03:22;12.20;1.00
25208;DHT22;13153;52.316;21.166;2024-02-16T11:05:50;12.20;1.00
25208;DHT22;13153;52.316;21.166;2024-02-16T11:08:18;12.30;1.00
25208;DHT22;13153;52.316;21.166;2024-02-16T11:11:01;12.40;1.00
25208;DHT22;13153;52.316;21.166;2024-02-16T11:13:33;12.40;1.00
25208;DHT22;13153;52.316;21.166;2024-02-16T11:16:18;12.30;1.00
25208;DHT22;13153;52.316;21.166;2024-02-16T11:18:45;12.30;1.00
25208;DHT22;13153;52.316;21.166;2024-02-16T11:21:15;12.40;1.00
25208;DHT22;13153;52.316;21.166;2024-02-16T11:23:41;12.40;1.00
25208;DHT22;13153;52.316;21.166;2024-02-16T11:26:12;12.40;1.00
25208;DHT22;13153;52.316;21.166;2024-02-16T11:28:41;12.30;1.00
25208;DHT22;13153;52.316;21.166;2024-02-16T11:31:08;12.30;1.00
25208;DHT22;13153;52.316;21.166;2024-02-16T11:33:34;12.20;1.00
25208;DHT22;13153;52.316;21.166;2024-02-16T11:36:05;12.20;1.00
25208;DHT22;13153;52.316;21.166;2024-02-16T11:38:34;12.20;1.00
25208;DHT22;13153;52.316;21.166;2024-02-16T11:41:07;12.20;1.00
25208;DHT22;13153;52.316;21.166;2024-02-16T11:43:36;12.20;1.00
25208;DHT22;13153;52.316;21.166;2024-02-16T11:46:12;12.20;1.00
25208;DHT22;13153;52.316;21.166;2024-02-16T11:48:39;12.30;7.80
25208;DHT22;13153;52.316;21.166;2024-02-16T11:51:05;12.30;26.60
25208;DHT22;13153;52.316;21.166;2024-02-16T11:53:31;12.30;49.20
25208;DHT22;13153;52.316;21.166;2024-02-16T11:55:58;12.40;81.00
25208;DHT22;13153;52.316;21.166;2024-02-16T11:58:25;12.30;97.70
25208;DHT22;13153;52.316;21.166;2024-02-16T12:00:52;12.30;99.90
25208;DHT22;13153;52.316;21.166;2024-02-16T12:03:25;12.30;99.90
25208;DHT22;13153;52.316;21.166;2024-02-16T12:05:57;12.40;99.90
25208;DHT22;13153;52.316;21.166;2024-02-16T12:08:34;12.30;99.90
25208;DHT22;13153;52.316;21.166;2024-02-16T12:11:01;12.40;99.90
25208;DHT22;13153;52.316;21.166;2024-02-16T12:13:28;12.40;99.90
25208;DHT22;13153;52.316;21.166;2024-02-16T12:15:53;12.40;99.90
25208;DHT22;13153;52.316;21.166;2024-02-16T12:18:26;12.50;99.90
25208;DHT22;13153;52.316;21.166;2024-02-16T12:21:03;12.40;99.90
25208;DHT22;13153;52.316;21.166;2024-02-16T12:23:31;12.40;99.90
25208;DHT22;13153;52.316;21.166;2024-02-16T12:25:59;12.40;99.90
25208;DHT22;13153;52.316;21.166;2024-02-16T12:28:30;12.40;99.90
25208;DHT22;13153;52.316;21.166;2024-02-16T12:31:01;12.40;99.90
25208;DHT22;13153;52.316;21.166;2024-02-16T12:33:27;12.40;99.90
25208;DHT22;13153;52.316;21.166;2024-02-16T12:35:53;12.40;99.90
25208;DHT22;13153;52.316;21.166;2024-02-16T12:38:19;12.40;99.90
25208;DHT22;13153;52.316;21.166;2024-02-16T12:40:49;12.50;99.90
25208;DHT22;13153;52.316;21.166;2024-02-16T12:43:15;12.60;99.90
25208;DHT22;13153;52.316;21.166;2024-02-16T12:45:41;12.60;99.90
25208;DHT22;13153;52.316;21.166;2024-02-16T12:48:08;12.60;99.90
25208;DHT22;13153;52.316;21.166;2024-02-16T12:50:36;12.60;99.90
25208;DHT22;13153;52.316;21.166;2024-02-16T12:53:04;12.50;99.90
25208;DHT22;13153;52.316;21.166;2024-02-16T12:55:30;12.60;99.90
25208;DHT22;13153;52.316;21.166;2024-02-16T12:57:56;12.60;99.90
25208;DHT22;13153;52.316;21.166;2024-02-16T13:00:22;12.60;99.90
25208;DHT22;13153;52.316;21.166;2024-02-16T13:02:48;12.60;99.90
25208;DHT22;13153;52.316;21.166;2024-02-16T13:05:14;12.60;99.90
25208;DHT22;13153;52.316;21.166;2024-02-16T13:07:40;12.60;99.90
25208;DHT22;13153;52.316;21.166;2024-02-16T13:10:08;12.60;99.90
25208;DHT22;13153;52.316;21.166;2024-02-16T13:12:35;12.60;99.90
25208;DHT22;13153;52.316;21.166;2024-02-16T13:15:03;12.60;99.90
25208;DHT22;13153;52.316;21.166;2024-02-16T13:17:30;12.60;99.90
25208;DHT22;13153;52.316;21.166;2024-02-16T13:19:56;12.50;99.90
25208;DHT22;13153;52.316;21.166;2024-02-16T13:22:31;12.50;99.90
25208;DHT22;13153;52.316;21.166;2024-02-16T13:24:57;12.40;99.90
25208;DHT22;13153;52.316;21.166;2024-02-16T13:27:23;12.40;99.90
25208;DHT22;13153;52.316;21.166;2024-02-16T13:29:48;12.40;99.90
25208;DHT22;13153;52.316;21.166;2024-02-16T13:32:14;12.40;1.00
25208;DHT22;13153;52.316;21.166;2024-02-16T13:34:40;12.40;1.00
25208;DHT22;13153;52.316;21.166;2024-02-16T13:37:06;12.40;1.00
25208;DHT22;13153;52.316;21.166;2024-02-16T13:39:32;12.40;99.90
25208;DHT22;13153;52.316;21.166;2024-02-16T13:41:58;12.40;1.00
25208;DHT22;13153;52.316;21.166;2024-02-16T13:44:24;12.40;99.90
25208;DHT22;13153;52.316;21.166;2024-02-16T13:46:50;12.40;1.00
25208;DHT22;13153;52.316;21.166;2024-02-16T13:49:16;12.50;1.00
25208;DHT22;13153;52.316;21.166;2024-02-16T13:51:42;12.50;1.00
25208;DHT22;13153;52.316;21.166;2024-02-16T13:54:08;12.50;1.00
25208;DHT22;13153;52.316;21.166;2024-02-16T13:56:34;12.50;1.00
25208;DHT22;13153;52.316;21.166;2024-02-16T13:59:02;12.50;1.00
25208;DHT22;13153;52.316;21.166;2024-02-16T14:01:29;12.50;99.90
25208;DHT22;13153;52.316;21.166;2024-02-16T14:03:55;12.50;1.00
25208;DHT22;13153;52.316;21.166;2024-02-16T14:06:21;12.50;1.00
25208;DHT22;13153;52.316;21.166;2024-02-16T14:08:47;12.50;99.90
25208;DHT22;13153;52.316;21.166;2024-02-16T14:11:18;12.50;99.90
25208;DHT22;13153;52.316;21.166;2024-02-16T14:13:44;12.50;99.90
25208;DHT22;13153;52.316;21.166;2024-02-16T14:16:10;12.50;99.90
25208;DHT22;13153;52.316;21.166;2024-02-16T14:18:37;12.50;99.90
25208;DHT22;13153;52.316;21.166;2024-02-16T14:21:03;12.50;99.90
25208;DHT22;13153;52.316;21.166;2024-02-16T14:23:29;12.50;99.90
25208;DHT22;13153;52.316;21.166;2024-02-16T14:25:56;12.40;99.90
25208;DHT22;13153;52.316;21.166;2024-02-16T14:28:22;12.40;99.90
25208;DHT22;13153;52.316;21.166;2024-02-16T14:30:48;12.40;99.90
25208;DHT22;13153;52.316;21.166;2024-02-16T14:33:13;12.40;99.90
25208;DHT22;13153;52.316;21.166;2024-02-16T14:35:42;12.40;99.90
25208;DHT22;13153;52.316;21.166;2024-02-16T14:38:09;12.40;99.90
25208;DHT22;13153;52.316;21.166;2024-02-16T14:40:36;12.30;99.90
25208;DHT22;13153;52.316;21.166;2024-02-16T14:43:02;12.30;99.90
25208;DHT22;13153;52.316;21.166;2024-02-16T14:45:28;12.30;99.90
25208;DHT22;13153;52.316;21.166;2024-02-16T14:47:54;12.30;99.90
25208;DHT22;13153;52.316;21.166;2024-02-16T14:50:19;12.30;99.90
25208;DHT22;13153;52.316;21.166;2024-02-16T14:52:45;12.30;99.90
25208;DHT22;13153;52.316;21.166;2024-02-16T14:55:12;12.30;99.90
25208;DHT22;13153;52.316;21.166;2024-02-16T14:57:42;12.20;99.90
25208;DHT22;13153;52.316;21.166;2024-02-16T15:00:12;12.20;99.90
25208;DHT22;13153;52.316;21.166;2024-02-16T15:02:39;12.10;99.90
25208;DHT22;13153;52.316;21.166;2024-02-16T15:05:08;12.10;99.90
25208;DHT22;13153;52.316;21.166;2024-02-16T15:07:34;12.10;99.90
25208;DHT22;13153;52.316;21.166;2024-02-16T15:10:01;12.00;99.90
25208;DHT22;13153;52.316;21.166;2024-02-16T15:12:28;12.00;99.90
25208;DHT22;13153;52.316;21.166;2024-02-16T15:14:54;12.00;99.90
25208;DHT22;13153;52.316;21.166;2024-02-16T15:17:20;11.90;99.90
25208;DHT22;13153;52.316;21.166;2024-02-16T15:19:47;11.90;99.90
25208;DHT22;13153;52.316;21.166;2024-02-16T15:22:13;11.80;99.90
25208;DHT22;13153;52.316;21.166;2024-02-16T15:24:39;11.80;99.90
25208;DHT22;13153;52.316;21.166;2024-02-16T15:27:05;11.70;99.90
25208;DHT22;13153;52.316;21.166;2024-02-16T15:29:32;11.70;99.90
25208;DHT22;13153;52.316;21.166;2024-02-16T15:31:58;11.60;99.90